Training locations

USA

Miami, Florida

Europe

Prague, Brno, Czech Republic

 

News

Flying Academy launches US FAA base in Miami

Miami, USA — (July 10, 2015) — Flying Academy one of the dominant providers of EASA flight training services in Europe, announced today the opening of a new base in the United States of America as the most recent expansion of Flying Academy’s presence.

The new presence comes in response to proven demand for Flying Academy’s training products worldwide. Flying Academy has now the ability to provide under a single umbrella both EASA and FAA flight training services.

Radim Olbrecht, CEO Flying Academy - "The opening of Flying Academy’s Miami FAA base is a natural outgrowth of the strong Flying Academy training portfolio. We have expanded our portfolio of flight training services to the US FAA regulations and will continue delivering our promise to create the next generation of highly skilled and knowledgeable professional pilots.

We are excited to lead the worldwide expansion of Flying Academy through a local presence in the USA".

The courses offered in Flying Academy’s Miami base are under FAA Part 141 and Part 61 regulations, from Private Pilot (PPL) and Commercial (CPL) to Instrument Rating, multi engine and Flight Instructor. For international students, Flying Academy Miami is able to provide the documentation needed for obtaining the US flight-training visa (I-20 form).

Bogdan Epure, Director of Operations - Flying Academy Miami - "As we focus on the emerging markets positive economic growth and the continuously increase of demand for high quality-cost effective flight training, we are very excited about our strategic investment in the United States and look forward to offering our customers even more efficient, competitive and industry aligned flight training solutions."

Flying Academy Miami operates a fleet of 7 aircraft composed of 1 x Cessna 152, 1 x Cessna 172R, 4 x Piper Cadet and 1 x Piper Arrow bringing the total aircraft in the fleet to 23.

Leos Vybiral - Director of Operations - Flying Academy Europe - "Flying Academy is geared up for sustainable growth. With the opening of the US base we have started the execution of our mid-term strategy. I am confident that we will establish the new base as a top choice flight training provider in the Americas".

Flying Academy’s Miami base is located at Miami Executive Airport, 14569 SW 127 St Miami FL 33186 and it’s open every day from 9AM to 7PM (EDT).

 

continue reading >>

Summer special: Piper Seneca III for 361 EUR!

This offer you have to take! Flying Academy reduced price for Piper Seneca III for only 361 EUR/hour! Reduced price for our aircraft is valid limited time only so hurry up to book yourself an aircraft! 

Seneca III is a two-engine aircraft, used for personal transport, multi-engine IR and CPL training. Retractable gear, variable pitch propellers, full IFR, de-ice, autopilot, WX radar.

Get more information about our special Summer Offer - contact us!

continue reading >>

MCC and JOC course on Boeing 737 NG simulator for a reduced price! Limited time only!

Now is the best time to do the JOC and MCC training on Boeing 737 NG.
The JOC course costs from 999 EUR only and it is a preparation course for airline assessment. Many airlines require the completion of the JOC for the pilot to be considered for the job selection process.
With the MCC course pilot becomes proficient in multi-crew cooperation (MCC) in order to operate safely multi-pilot multi-engine airplanes under IFR. The price of MCC course is 3 390 EUR in Standard variant. Of course it is advantageous to take Advanced MCC course (MCC + JOC) for 3 999 EUR!

continue reading >>

archive

Latest blog post

How to jet a job as an airline pilot? Our student, now in Ryanair cadet program, will give you advices for interview

This article is written as simple suggestion of what to do and what not to do when you are faced with the moment that you have been waiting for, the job interview or sometimes known as an assessment day. As the name implies, it’s an assessment and that means that you are there to be assessed - If you look up this word in a dictionary it will read: “To determine the value, significance, or extent of; appraise.” And this is where your part comes into play, writes Flying Academy student Matteus Kostrzewski who recently went to Ryanair interview and got accepted in cadet program.

 

Let's first talk about what most companies are looking for, especially for you as a low hour pilot. The only time a company will want to hire a pilot with low hours is because of one reason; they want to see that you are able to conduct further training with them. An additional reason beyond this point is the “pay it yourself” type rating scheme, but since this has nothing to do with skill and only how deep your pockets go meaning that It has nothing to do with the selection process. The assessment is usually divided into two parts, an interview with technical and non-technical questions and a simulator assessment.

continue reading >>

archive

Latest weather

LKTB

LKTB 291930Z 18009KT CAVOK 18/13 Q1010 TEMPO TSRA

LKPR

LKPR 291930Z 22012KT 9999 FEW015 12/11 Q1010 NOSIG

LKKV

LKKV 291900Z 22003KT 170V260 9999 SCT036 13/10 Q1010

KTMB

KTMB 291853Z 26008G15KT 10SM SCT030 SCT050 BKN200 34/20 A3000 RMK AO2 SLP160 T03440200



Briefing tools

METAR & TAF Europe

METAR & TAF CZ

Weather Radar CZ

AIP Czech Republic

Integrated ATPL(A) with 750 hours of ground, MCC, JOC on B737NG or A320 FFS + interview preparation course Register now!